createdAt,value
2022-12-16T00:01:56.807Z,-7.06
2022-12-16T00:04:25.664Z,-7.12
2022-12-16T00:06:54.214Z,-7.06
2022-12-16T00:09:23.390Z,-7.05
2022-12-16T00:11:53.410Z,-7.07
2022-12-16T00:14:23.308Z,-7.12
2022-12-16T00:16:51.549Z,-7.15
2022-12-16T00:19:21.335Z,-7.20
2022-12-16T00:21:49.898Z,-7.12
2022-12-16T00:24:20.364Z,-7.19
2022-12-16T00:26:48.896Z,-7.11
2022-12-16T00:29:19.222Z,-7.06
2022-12-16T00:31:48.238Z,-7.18
2022-12-16T00:34:17.652Z,-7.11
2022-12-16T00:36:46.213Z,-7.25
2022-12-16T00:39:14.796Z,-7.20
2022-12-16T00:41:43.407Z,-7.18
2022-12-16T00:44:12.091Z,-7.17
2022-12-16T00:46:41.698Z,-7.20
2022-12-16T00:49:10.352Z,-7.16
2022-12-16T00:51:38.971Z,-7.23
2022-12-16T00:54:07.563Z,-7.01
2022-12-16T00:56:37.041Z,-6.97
2022-12-16T00:59:05.683Z,-7.02
2022-12-16T01:01:34.094Z,-7.18
2022-12-16T01:04:04.144Z,-7.21
2022-12-16T01:06:32.823Z,-7.19
2022-12-16T01:09:02.202Z,-7.28
2022-12-16T01:11:30.792Z,-7.45
2022-12-16T01:13:59.689Z,-7.23
2022-12-16T01:16:27.915Z,-7.28
2022-12-16T01:18:56.570Z,-7.32
2022-12-16T01:21:26.498Z,-7.07
2022-12-16T01:23:55.155Z,-7.07
2022-12-16T01:26:23.971Z,-6.96
2022-12-16T01:28:52.188Z,-7.02
2022-12-16T01:31:22.170Z,-6.92
2022-12-16T01:33:50.999Z,-7.06
2022-12-16T01:36:20.151Z,-7.08
2022-12-16T01:38:50.319Z,-7.13
2022-12-16T01:41:19.597Z,-7.03
2022-12-16T01:43:48.184Z,-6.99
2022-12-16T01:46:21.312Z,-7.00
2022-12-16T01:48:52.353Z,-7.11
2022-12-16T01:51:26.327Z,-7.17
2022-12-16T01:53:58.312Z,-7.05
2022-12-16T01:56:29.541Z,-6.93
2022-12-16T01:58:58.447Z,-7.12
2022-12-16T02:01:27.428Z,-7.16
2022-12-16T02:03:58.926Z,-6.94
2022-12-16T02:06:27.566Z,-7.03
2022-12-16T02:08:59.877Z,-7.00
2022-12-16T02:11:52.012Z,-6.93
2022-12-16T02:14:39.381Z,-6.84
2022-12-16T02:17:12.364Z,-6.93
2022-12-16T02:20:01.457Z,-6.96
2022-12-16T02:22:35.863Z,-7.14
2022-12-16T02:25:24.018Z,-7.03
2022-12-16T02:28:02.651Z,-7.12
2022-12-16T02:30:48.657Z,-7.05
2022-12-16T02:33:37.202Z,-7.09
2022-12-16T02:36:12.302Z,-7.13
2022-12-16T02:38:44.269Z,-7.16
2022-12-16T02:41:18.601Z,-7.16
2022-12-16T02:43:54.256Z,-7.46
2022-12-16T02:46:27.393Z,-7.24
2022-12-16T02:48:56.554Z,-7.36
2022-12-16T02:51:27.267Z,-7.29
2022-12-16T02:53:56.841Z,-7.37
2022-12-16T02:56:37.657Z,-7.35
2022-12-16T02:59:14.835Z,-7.28
2022-12-16T03:01:49.320Z,-7.27
2022-12-16T03:04:21.381Z,-7.29
2022-12-16T03:06:52.018Z,-7.39
2022-12-16T03:09:22.837Z,-7.32
2022-12-16T03:11:52.453Z,-7.25
2022-12-16T03:14:21.991Z,-7.19
2022-12-16T03:16:52.147Z,-7.19
2022-12-16T03:19:21.322Z,-7.35
2022-12-16T03:21:53.541Z,-7.25
2022-12-16T03:24:22.229Z,-7.25
2022-12-16T03:26:57.386Z,-7.11
2022-12-16T03:29:29.000Z,-7.16
2022-12-16T03:32:00.238Z,-7.15
2022-12-16T03:34:34.362Z,-7.03
2022-12-16T03:37:06.399Z,-7.17
2022-12-16T03:39:36.995Z,-7.27
2022-12-16T03:42:05.909Z,-7.25
2022-12-16T03:44:37.549Z,-7.06
2022-12-16T03:47:08.063Z,-7.08
2022-12-16T03:49:36.075Z,-7.00
2022-12-16T03:52:04.919Z,-7.12
2022-12-16T03:54:34.737Z,-7.28
2022-12-16T03:57:03.800Z,-7.27
2022-12-16T03:59:32.468Z,-7.28
2022-12-16T04:02:01.454Z,-7.10
2022-12-16T04:04:31.252Z,-7.03
2022-12-16T04:07:13.645Z,-7.02
2022-12-16T04:09:42.272Z,-7.18
2022-12-16T04:12:28.534Z,-7.13
2022-12-16T04:15:14.407Z,-7.08
2022-12-16T04:18:00.576Z,-7.06
2022-12-16T04:20:50.831Z,-7.16
2022-12-16T04:23:40.109Z,-7.10
2022-12-16T04:26:08.463Z,-7.15
2022-12-16T04:28:37.055Z,-7.03
2022-12-16T04:31:06.121Z,-6.94
2022-12-16T04:33:52.310Z,-6.99
2022-12-16T04:36:40.056Z,-6.89
2022-12-16T04:39:37.561Z,-6.98
2022-12-16T04:42:23.486Z,-7.00
2022-12-16T04:45:09.709Z,-7.12
2022-12-16T04:47:57.633Z,-7.06
2022-12-16T04:50:43.861Z,-7.33
2022-12-16T04:53:31.056Z,-7.08
2022-12-16T04:56:17.525Z,-7.21
2022-12-16T04:59:03.373Z,-7.25
2022-12-16T05:01:46.031Z,-7.21
2022-12-16T05:04:32.589Z,-7.19
2022-12-16T05:07:18.616Z,-7.38
2022-12-16T05:10:06.237Z,-7.26
2022-12-16T05:12:57.757Z,-7.26
2022-12-16T05:15:43.977Z,-7.45
2022-12-16T05:18:30.939Z,-7.37
2022-12-16T05:21:17.132Z,-7.39
2022-12-16T05:24:02.972Z,-7.34
2022-12-16T05:26:49.704Z,-7.26
2022-12-16T05:29:35.955Z,-7.18
2022-12-16T05:32:22.844Z,-7.13
2022-12-16T05:35:05.284Z,-7.09
2022-12-16T05:37:51.597Z,-7.08
2022-12-16T05:40:37.584Z,-6.91
2022-12-16T05:43:25.239Z,-6.88
2022-12-16T05:46:11.517Z,-7.00
2022-12-16T05:48:57.942Z,-6.82
2022-12-16T05:51:44.221Z,-6.74
2022-12-16T05:54:31.649Z,-6.84
2022-12-16T05:57:17.822Z,-6.75
2022-12-16T06:00:05.741Z,-6.74
2022-12-16T06:02:57.596Z,-6.84
2022-12-16T06:05:43.806Z,-6.93
2022-12-16T06:08:29.379Z,-6.85
2022-12-16T06:11:15.316Z,-6.73
2022-12-16T06:14:01.090Z,-6.83
2022-12-16T06:16:48.611Z,-6.67
2022-12-16T06:19:34.696Z,-6.72
2022-12-16T06:22:35.254Z,-6.84
2022-12-16T06:25:21.705Z,-6.76
2022-12-16T06:28:10.015Z,-6.66
2022-12-16T06:30:57.197Z,-6.90
2022-12-16T06:33:45.302Z,-6.86
2022-12-16T06:36:30.720Z,-6.86
2022-12-16T06:39:16.795Z,-6.83
2022-12-16T06:42:03.088Z,-6.78
2022-12-16T06:44:49.278Z,-6.77
2022-12-16T06:47:35.328Z,-7.05
2022-12-16T06:50:22.648Z,-6.62
2022-12-16T06:53:08.686Z,-6.83
2022-12-16T06:55:54.761Z,-7.03
2022-12-16T06:58:39.958Z,-6.96
2022-12-16T07:01:26.400Z,-6.73
2022-12-16T07:04:12.716Z,-6.74
2022-12-16T07:07:00.421Z,-6.78
2022-12-16T07:09:46.524Z,-6.85
2022-12-16T07:12:32.504Z,-6.72
2022-12-16T07:15:18.588Z,-6.93
2022-12-16T07:18:04.459Z,-6.63
2022-12-16T07:20:50.551Z,-6.53
2022-12-16T07:23:38.122Z,-6.52
2022-12-16T07:26:24.152Z,-6.49
2022-12-16T07:29:10.090Z,-6.45
2022-12-16T07:31:56.036Z,-6.54
2022-12-16T07:34:45.912Z,-6.59
2022-12-16T07:37:34.638Z,-6.49
2022-12-16T07:40:24.975Z,-6.42
2022-12-16T07:43:11.016Z,-6.47
2022-12-16T07:45:57.166Z,-6.54
2022-12-16T07:48:43.128Z,-6.51
2022-12-16T07:51:29.461Z,-6.48
2022-12-16T07:54:15.910Z,-6.68
2022-12-16T07:57:03.208Z,-6.38
2022-12-16T07:59:49.379Z,-6.58
2022-12-16T08:02:35.449Z,-6.57
2022-12-16T08:05:22.365Z,-6.51
2022-12-16T08:08:08.610Z,-6.42
2022-12-16T08:10:55.320Z,-6.50
2022-12-16T08:13:43.670Z,-6.21
2022-12-16T08:16:29.880Z,-6.30
2022-12-16T08:19:16.276Z,-6.17
2022-12-16T08:22:02.324Z,-6.42
2022-12-16T08:24:53.289Z,-6.18
2022-12-16T08:27:39.532Z,-6.36
2022-12-16T08:30:30.225Z,-6.24
2022-12-16T08:33:30.876Z,-6.26
2022-12-16T08:36:17.081Z,-6.09
2022-12-16T08:39:05.088Z,-6.12
2022-12-16T08:41:51.234Z,-6.21
2022-12-16T08:44:37.430Z,-6.62
2022-12-16T08:47:24.603Z,-6.21
2022-12-16T08:50:10.764Z,-6.26
2022-12-16T08:52:56.770Z,-6.29
2022-12-16T08:55:57.257Z,-6.15
2022-12-16T08:58:43.313Z,-6.11
2022-12-16T09:01:29.757Z,-6.07
2022-12-16T09:04:17.446Z,-6.06
2022-12-16T09:07:03.683Z,-6.11
2022-12-16T09:09:49.564Z,-6.26
2022-12-16T09:12:35.711Z,-6.36
2022-12-16T09:15:21.854Z,-6.14
2022-12-16T09:18:13.448Z,-6.06
2022-12-16T09:21:00.864Z,-6.17
2022-12-16T09:23:46.963Z,-5.96
2022-12-16T09:26:33.138Z,-5.96
2022-12-16T09:29:19.010Z,-6.01
2022-12-16T09:32:04.992Z,-5.94
2022-12-16T09:34:51.239Z,-5.62
2022-12-16T09:37:38.790Z,-5.69
2022-12-16T09:40:27.137Z,-5.58
2022-12-16T09:43:19.192Z,-5.64
2022-12-16T09:46:11.314Z,-5.48
2022-12-16T09:49:01.219Z,-5.44
2022-12-16T09:51:48.033Z,-5.54
2022-12-16T09:54:38.167Z,-5.40
2022-12-16T09:57:24.139Z,-4.96
2022-12-16T10:00:13.160Z,-5.40
2022-12-16T10:03:06.546Z,-5.21
2022-12-16T10:05:57.743Z,-4.84
2022-12-16T10:08:50.777Z,-4.80
2022-12-16T10:11:42.125Z,-4.64
2022-12-16T10:14:32.087Z,-4.73
2022-12-16T10:17:24.105Z,-4.66
2022-12-16T10:20:15.114Z,-4.74
2022-12-16T10:23:06.543Z,-4.76
2022-12-16T10:25:58.746Z,-4.74
2022-12-16T10:29:00.851Z,-4.81
2022-12-16T10:31:47.100Z,-4.84
2022-12-16T10:34:35.204Z,-4.81
2022-12-16T10:37:21.533Z,-4.85
2022-12-16T10:40:10.227Z,-4.71
2022-12-16T10:43:03.381Z,-4.76
2022-12-16T10:45:54.939Z,-4.74
2022-12-16T10:48:54.947Z,-4.98
2022-12-16T10:51:45.257Z,-5.19
2022-12-16T10:54:47.009Z,-4.77
2022-12-16T10:57:38.144Z,-4.69
2022-12-16T11:00:25.193Z,-4.98
2022-12-16T11:03:18.409Z,-5.13
2022-12-16T11:06:04.663Z,-4.82
2022-12-16T11:08:52.773Z,-4.52
2022-12-16T11:11:43.943Z,-4.71
2022-12-16T11:14:36.482Z,-4.54
2022-12-16T11:17:34.579Z,-4.75
2022-12-16T11:20:36.516Z,-4.63
2022-12-16T11:23:33.535Z,-4.68
2022-12-16T11:26:24.720Z,-4.61
2022-12-16T11:29:34.251Z,-4.46
2022-12-16T11:32:22.311Z,-4.41
2022-12-16T11:35:11.504Z,-4.35
2022-12-16T11:38:00.702Z,-4.31
2022-12-16T11:40:48.280Z,-4.32
2022-12-16T11:43:35.961Z,-4.18
2022-12-16T11:46:24.934Z,-4.62
2022-12-16T11:49:14.967Z,-4.06
2022-12-16T11:52:28.130Z,-4.23
2022-12-16T11:55:16.070Z,-4.02
2022-12-16T11:58:06.206Z,-3.99
2022-12-16T12:00:52.826Z,-4.09
2022-12-16T12:03:42.101Z,-4.45
2022-12-16T12:06:35.468Z,-4.48
2022-12-16T12:09:25.978Z,-4.66
2022-12-16T12:12:17.696Z,-4.51
2022-12-16T12:15:08.714Z,-4.56
2022-12-16T12:18:00.804Z,-4.55
2022-12-16T12:21:01.931Z,-4.20
2022-12-16T12:23:56.929Z,-4.32
2022-12-16T12:26:46.578Z,-4.49
2022-12-16T12:29:38.977Z,-4.65
2022-12-16T12:32:33.451Z,-4.23
2022-12-16T12:35:27.449Z,-4.12
2022-12-16T12:38:18.961Z,-4.76
2022-12-16T12:41:09.541Z,-4.40
2022-12-16T12:44:00.710Z,-4.47
2022-12-16T12:46:52.477Z,-4.74
2022-12-16T12:49:44.470Z,-4.69
2022-12-16T12:52:38.937Z,-4.69
2022-12-16T12:55:29.448Z,-4.79
2022-12-16T12:58:15.996Z,-4.69
2022-12-16T13:01:04.947Z,-4.75
2022-12-16T13:03:56.208Z,-4.45
2022-12-16T13:06:42.802Z,-4.47
2022-12-16T13:09:52.519Z,-4.67
2022-12-16T13:12:47.076Z,-4.87
2022-12-16T13:15:53.938Z,-4.75
2022-12-16T13:18:45.428Z,-5.06
2022-12-16T13:22:03.804Z,-4.88
2022-12-16T13:25:08.142Z,-4.92
2022-12-16T13:28:26.635Z,-4.83
2022-12-16T13:31:24.918Z,-5.05
2022-12-16T13:34:13.007Z,-5.24
2022-12-16T13:36:59.556Z,-5.71
2022-12-16T13:39:48.377Z,-5.25
2022-12-16T13:42:54.352Z,-5.34
2022-12-16T13:45:49.822Z,-5.23
2022-12-16T13:48:55.911Z,-5.53
2022-12-16T13:52:24.176Z,-5.27
2022-12-16T13:55:33.059Z,-5.60
2022-12-16T13:58:22.929Z,-5.82
2022-12-16T14:01:18.218Z,-5.68
2022-12-16T14:04:21.753Z,-5.69
2022-12-16T14:07:08.029Z,-5.73
2022-12-16T14:09:55.836Z,-5.73
2022-12-16T14:12:59.873Z,-5.99
2022-12-16T14:15:50.394Z,-5.84
2022-12-16T14:18:45.570Z,-5.92
2022-12-16T14:21:35.776Z,-5.77
2022-12-16T14:24:22.465Z,-5.84
2022-12-16T14:27:09.303Z,-5.88
2022-12-16T14:29:56.600Z,-6.08
2022-12-16T14:32:46.915Z,-5.90
2022-12-16T14:35:34.388Z,-5.90
2022-12-16T14:38:39.413Z,-5.74
2022-12-16T14:41:29.439Z,-5.88
2022-12-16T14:44:15.432Z,-5.88
2022-12-16T14:47:08.225Z,-5.87
2022-12-16T14:50:01.222Z,-6.02
2022-12-16T14:52:47.246Z,-6.08
2022-12-16T14:55:35.149Z,-5.91
2022-12-16T14:58:23.174Z,-5.95
2022-12-16T15:01:15.513Z,-5.93
2022-12-16T15:04:05.206Z,-6.18
2022-12-16T15:06:53.567Z,-6.16
2022-12-16T15:09:44.062Z,-6.25
2022-12-16T15:12:31.472Z,-5.99
2022-12-16T15:15:18.123Z,-6.25
2022-12-16T15:18:08.554Z,-6.09
2022-12-16T15:20:59.526Z,-6.00
2022-12-16T15:23:47.733Z,-6.27
2022-12-16T15:26:36.663Z,-6.22
2022-12-16T15:29:23.157Z,-6.28
2022-12-16T15:32:09.395Z,-6.33
2022-12-16T15:35:04.374Z,-6.12
2022-12-16T15:38:00.603Z,-6.33
2022-12-16T15:40:52.192Z,-6.11
2022-12-16T15:43:40.560Z,-6.14
2022-12-16T15:46:36.244Z,-6.09
2022-12-16T15:49:23.687Z,-6.23
2022-12-16T15:52:10.132Z,-6.28
2022-12-16T15:55:10.539Z,-6.30
2022-12-16T15:57:57.590Z,-6.29
2022-12-16T16:00:45.638Z,-6.36
2022-12-16T16:03:37.877Z,-6.19
2022-12-16T16:06:33.666Z,-6.11
2022-12-16T16:09:26.367Z,-6.14
2022-12-16T16:12:14.109Z,-6.24
2022-12-16T16:15:00.078Z,-6.29
2022-12-16T16:17:46.387Z,-6.15
2022-12-16T16:20:34.057Z,-6.18
2022-12-16T16:23:19.926Z,-6.25
2022-12-16T16:26:06.539Z,-6.22
2022-12-16T16:28:54.334Z,-6.28
2022-12-16T16:31:40.368Z,-6.48
2022-12-16T16:34:23.283Z,-6.16
2022-12-16T16:37:12.511Z,-6.13
2022-12-16T16:39:58.474Z,-6.38
2022-12-16T16:42:59.111Z,-6.25
2022-12-16T16:45:46.709Z,-6.15
2022-12-16T16:48:34.953Z,-6.16
2022-12-16T16:51:22.768Z,-6.31
2022-12-16T16:54:09.034Z,-6.35
2022-12-16T16:56:56.167Z,-6.45
2022-12-16T16:59:42.709Z,-6.32
2022-12-16T17:02:40.536Z,-6.39
2022-12-16T17:05:28.928Z,-6.22
2022-12-16T17:08:15.570Z,-6.24
2022-12-16T17:11:01.687Z,-6.36
2022-12-16T17:13:47.954Z,-6.72
2022-12-16T17:16:42.489Z,-6.54
2022-12-16T17:19:29.877Z,-6.53
2022-12-16T17:22:16.139Z,-6.61
2022-12-16T17:25:02.212Z,-6.62
2022-12-16T17:27:59.840Z,-6.37
2022-12-16T17:30:47.822Z,-6.39
2022-12-16T17:33:35.068Z,-6.46
2022-12-16T17:36:26.125Z,-6.60
2022-12-16T17:39:16.707Z,-6.25
2022-12-16T17:42:02.739Z,-6.24
2022-12-16T17:44:48.707Z,-6.30
2022-12-16T17:47:34.855Z,-6.32
2022-12-16T17:50:22.023Z,-6.21
2022-12-16T17:53:12.656Z,-6.08
2022-12-16T17:55:58.634Z,-6.17
2022-12-16T17:58:57.230Z,-6.30
2022-12-16T18:01:43.567Z,-6.27
2022-12-16T18:04:29.917Z,-6.42
2022-12-16T18:07:15.860Z,-6.36
2022-12-16T18:10:03.210Z,-6.39
2022-12-16T18:12:49.230Z,-6.38
2022-12-16T18:15:35.660Z,-6.43
2022-12-16T18:18:22.295Z,-6.43
2022-12-16T18:21:21.391Z,-6.58
2022-12-16T18:24:07.185Z,-6.50
2022-12-16T18:26:54.861Z,-6.27
2022-12-16T18:29:40.785Z,-6.27
2022-12-16T18:32:30.525Z,-6.40
2022-12-16T18:35:19.079Z,-6.44
2022-12-16T18:38:05.291Z,-6.33
2022-12-16T18:40:51.191Z,-6.39
2022-12-16T18:43:38.673Z,-6.06
2022-12-16T18:46:27.468Z,-5.97
2022-12-16T18:49:13.763Z,-5.99
2022-12-16T18:52:11.403Z,-6.07
2022-12-16T18:54:57.780Z,-5.88
2022-12-16T18:57:43.667Z,-6.21
2022-12-16T19:00:32.129Z,-5.87
2022-12-16T19:03:20.395Z,-5.95
2022-12-16T19:06:12.169Z,-5.98
2022-12-16T19:08:58.380Z,-5.92
2022-12-16T19:11:46.004Z,-5.75
2022-12-16T19:14:31.797Z,-5.72
2022-12-16T19:17:19.306Z,-5.70
2022-12-16T19:20:05.231Z,-5.70
2022-12-16T19:22:51.335Z,-5.55
2022-12-16T19:25:37.609Z,-5.78
2022-12-16T19:28:23.601Z,-5.72
2022-12-16T19:31:13.151Z,-5.75
2022-12-16T19:34:00.967Z,-5.73
2022-12-16T19:36:47.673Z,-5.75
2022-12-16T19:39:33.647Z,-5.96
2022-12-16T19:42:19.599Z,-5.72
2022-12-16T19:45:05.651Z,-5.75
2022-12-16T19:47:51.736Z,-5.82
2022-12-16T19:50:40.270Z,-5.80
2022-12-16T19:53:28.360Z,-5.72
2022-12-16T19:56:15.881Z,-5.93
2022-12-16T19:59:02.469Z,-6.02
2022-12-16T20:01:49.322Z,-5.72
2022-12-16T20:04:38.053Z,-5.65
2022-12-16T20:07:23.454Z,-5.93
2022-12-16T20:10:09.908Z,-5.95
2022-12-16T20:12:56.197Z,-5.93
2022-12-16T20:15:42.354Z,-5.90
2022-12-16T20:18:28.266Z,-5.92
2022-12-16T20:21:14.328Z,-5.95
2022-12-16T20:24:02.182Z,-5.73
2022-12-16T20:26:48.084Z,-5.93
2022-12-16T20:29:34.321Z,-5.78
2022-12-16T20:32:20.198Z,-5.62
2022-12-16T20:35:06.283Z,-5.65
2022-12-16T20:37:52.297Z,-5.78
2022-12-16T20:40:44.578Z,-5.73
2022-12-16T20:43:31.192Z,-5.73
2022-12-16T20:46:23.544Z,-5.83
2022-12-16T20:49:09.802Z,-5.94
2022-12-16T20:51:56.280Z,-5.75
2022-12-16T20:54:43.530Z,-5.69
2022-12-16T20:57:31.098Z,-5.66
2022-12-16T21:00:17.322Z,-5.92
2022-12-16T21:03:03.751Z,-5.96
2022-12-16T21:05:50.601Z,-6.02
2022-12-16T21:08:37.777Z,-5.99
2022-12-16T21:11:23.836Z,-5.99
2022-12-16T21:14:11.569Z,-5.86
2022-12-16T21:16:57.959Z,-6.05
2022-12-16T21:19:43.903Z,-6.10
2022-12-16T21:22:30.001Z,-6.14
2022-12-16T21:25:21.106Z,-6.12
2022-12-16T21:28:14.672Z,-5.82
2022-12-16T21:31:02.017Z,-5.94
2022-12-16T21:33:48.590Z,-5.96
2022-12-16T21:36:35.024Z,-6.11
2022-12-16T21:39:21.572Z,-6.12
2022-12-16T21:42:07.554Z,-5.99
2022-12-16T21:44:53.535Z,-5.88
2022-12-16T21:47:43.730Z,-5.76
2022-12-16T21:50:29.291Z,-5.87
2022-12-16T21:53:15.156Z,-5.71
2022-12-16T21:56:01.178Z,-5.52
2022-12-16T21:58:47.215Z,-5.70
2022-12-16T22:01:33.248Z,-5.80
2022-12-16T22:04:23.134Z,-5.80
2022-12-16T22:07:09.075Z,-5.75
2022-12-16T22:10:10.095Z,-5.71
2022-12-16T22:12:56.347Z,-5.69
2022-12-16T22:15:42.288Z,-5.73
2022-12-16T22:18:28.333Z,-5.64
2022-12-16T22:21:17.630Z,-5.58
2022-12-16T22:24:04.820Z,-5.95
2022-12-16T22:26:50.581Z,-5.76
2022-12-16T22:29:36.802Z,-5.60
2022-12-16T22:32:22.773Z,-5.61
2022-12-16T22:35:08.758Z,-5.70
2022-12-16T22:37:56.930Z,-5.51
2022-12-16T22:40:42.791Z,-5.56
2022-12-16T22:43:30.391Z,-5.56
2022-12-16T22:46:18.118Z,-5.46
2022-12-16T22:49:05.270Z,-5.58
2022-12-16T22:51:52.149Z,-5.54
2022-12-16T22:54:39.949Z,-5.39
2022-12-16T22:57:25.888Z,-5.48
2022-12-16T23:00:11.891Z,-5.56
2022-12-16T23:02:58.082Z,-5.90
2022-12-16T23:05:44.027Z,-5.62
2022-12-16T23:08:30.026Z,-5.52
2022-12-16T23:11:18.476Z,-5.46
2022-12-16T23:14:05.496Z,-5.48
2022-12-16T23:16:51.865Z,-5.57
2022-12-16T23:19:39.428Z,-5.58
2022-12-16T23:22:25.639Z,-5.60
2022-12-16T23:25:11.685Z,-5.54
2022-12-16T23:27:59.187Z,-5.36
2022-12-16T23:30:44.595Z,-5.51
2022-12-16T23:33:30.718Z,-5.58
2022-12-16T23:36:16.851Z,-5.58
2022-12-16T23:39:02.869Z,-5.61
2022-12-16T23:41:48.792Z,-5.62
2022-12-16T23:44:36.593Z,-5.81
2022-12-16T23:47:22.151Z,-5.80
2022-12-16T23:50:15.464Z,-5.76
2022-12-16T23:53:02.273Z,-5.88
2022-12-16T23:55:48.281Z,-5.78
2022-12-16T23:58:34.553Z,-6.07
